createdAt,value
2023-02-12T00:01:27.210Z,5.40
2023-02-12T00:03:54.708Z,4.65
2023-02-12T00:06:22.681Z,4.30
2023-02-12T00:08:52.362Z,4.35
2023-02-12T00:11:23.982Z,4.25
2023-02-12T00:13:53.642Z,3.67
2023-02-12T00:16:25.910Z,4.07
2023-02-12T00:18:55.928Z,4.57
2023-02-12T00:21:24.104Z,3.80
2023-02-12T00:23:51.585Z,3.70
2023-02-12T00:26:22.383Z,4.05
2023-02-12T00:28:50.473Z,3.92
2023-02-12T00:31:25.106Z,3.83
2023-02-12T00:33:52.763Z,3.88
2023-02-12T00:36:24.095Z,3.40
2023-02-12T00:38:57.293Z,3.33
2023-02-12T00:41:25.392Z,3.45
2023-02-12T00:43:52.853Z,3.13
2023-02-12T00:46:21.042Z,3.55
2023-02-12T00:48:48.460Z,3.38
2023-02-12T00:51:15.962Z,3.00
2023-02-12T00:53:43.528Z,3.03
2023-02-12T00:56:10.535Z,3.50
2023-02-12T00:58:37.883Z,3.00
2023-02-12T01:01:05.319Z,2.97
2023-02-12T01:03:32.383Z,3.58
2023-02-12T01:05:59.744Z,3.13
2023-02-12T01:08:27.500Z,3.00
2023-02-12T01:11:04.802Z,2.88
2023-02-12T01:13:33.795Z,3.83
2023-02-12T01:16:19.419Z,3.42
2023-02-12T01:18:48.293Z,4.40
2023-02-12T01:21:23.184Z,3.00
2023-02-12T01:23:50.254Z,2.70
2023-02-12T01:26:20.074Z,2.78
2023-02-12T01:28:52.269Z,2.50
2023-02-12T01:31:24.174Z,2.67
2023-02-12T01:33:54.850Z,3.15
2023-02-12T01:36:22.805Z,3.60
2023-02-12T01:38:50.761Z,2.80
2023-02-12T01:41:28.766Z,3.15
2023-02-12T01:44:13.428Z,3.10
2023-02-12T01:46:41.819Z,3.40
2023-02-12T01:49:22.887Z,3.85
2023-02-12T01:52:00.659Z,3.83
2023-02-12T01:54:31.338Z,3.78
2023-02-12T01:57:02.202Z,4.00
2023-02-12T01:59:31.178Z,4.53
2023-02-12T02:01:58.427Z,4.88
2023-02-12T02:04:32.830Z,4.43
2023-02-12T02:07:04.175Z,3.88
2023-02-12T02:09:36.448Z,4.05
2023-02-12T02:12:22.492Z,3.72
2023-02-12T02:14:53.569Z,3.80
2023-02-12T02:17:50.622Z,3.78
2023-02-12T02:20:54.283Z,4.22
2023-02-12T02:24:04.962Z,4.45
2023-02-12T02:27:13.144Z,4.05
2023-02-12T02:30:19.695Z,3.67
2023-02-12T02:33:27.377Z,3.35
2023-02-12T02:36:41.424Z,3.10
2023-02-12T02:39:24.625Z,3.35
2023-02-12T02:42:03.328Z,4.28
2023-02-12T02:44:43.683Z,4.53
2023-02-12T02:47:14.789Z,4.38
2023-02-12T02:50:02.814Z,4.45
2023-02-12T02:52:43.607Z,4.45
2023-02-12T02:55:15.489Z,5.43
2023-02-12T02:57:53.124Z,4.15
2023-02-12T03:00:59.018Z,4.72
2023-02-12T03:03:53.292Z,3.80
2023-02-12T03:06:51.445Z,3.45
2023-02-12T03:09:31.478Z,3.20
2023-02-12T03:12:09.604Z,3.17
2023-02-12T03:14:54.519Z,3.72
2023-02-12T03:17:30.633Z,3.80
2023-02-12T03:20:07.771Z,4.45
2023-02-12T03:22:40.709Z,4.25
2023-02-12T03:25:24.450Z,4.28
2023-02-12T03:28:06.998Z,4.22
2023-02-12T03:31:12.216Z,4.10
2023-02-12T03:34:19.686Z,4.15
2023-02-12T03:37:14.211Z,4.88
2023-02-12T03:40:17.356Z,6.93
2023-02-12T03:43:09.114Z,5.72
2023-02-12T03:45:45.280Z,4.07
2023-02-12T03:48:30.489Z,3.70
2023-02-12T03:51:10.214Z,3.50
2023-02-12T03:53:37.713Z,3.08
2023-02-12T03:56:20.170Z,3.00
2023-02-12T03:58:47.324Z,2.72
2023-02-12T04:01:15.728Z,3.42
2023-02-12T04:03:42.953Z,4.60
2023-02-12T04:06:25.811Z,4.03
2023-02-12T04:08:57.120Z,4.22
2023-02-12T04:11:30.240Z,5.15
2023-02-12T04:14:47.903Z,5.00
2023-02-12T04:17:40.374Z,5.03
2023-02-12T04:20:33.358Z,5.10
2023-02-12T04:23:24.310Z,6.18
2023-02-12T04:25:57.423Z,4.88
2023-02-12T04:28:56.647Z,6.93
2023-02-12T04:31:41.045Z,6.22
2023-02-12T04:34:19.016Z,6.75
2023-02-12T04:37:07.253Z,5.93
2023-02-12T04:39:39.739Z,5.07
2023-02-12T04:42:06.957Z,5.95
2023-02-12T04:44:38.149Z,7.63
2023-02-12T04:47:05.278Z,8.32
2023-02-12T04:49:32.463Z,7.95
2023-02-12T04:51:59.980Z,7.40
2023-02-12T04:54:27.147Z,7.53
2023-02-12T04:56:54.366Z,8.05
2023-02-12T04:59:21.803Z,7.25
2023-02-12T05:01:48.997Z,6.88
2023-02-12T05:04:17.868Z,7.13
2023-02-12T05:06:46.701Z,7.15
2023-02-12T05:09:20.309Z,6.90
2023-02-12T05:11:47.648Z,7.00
2023-02-12T05:14:16.221Z,6.80
2023-02-12T05:16:44.089Z,8.30
2023-02-12T05:19:12.390Z,10.95
2023-02-12T05:21:39.745Z,10.27
2023-02-12T05:24:07.511Z,9.82
2023-02-12T05:26:35.511Z,8.68
2023-02-12T05:29:03.633Z,8.25
2023-02-12T05:31:31.394Z,8.82
2023-02-12T05:33:58.487Z,8.43
2023-02-12T05:36:26.258Z,9.27
2023-02-12T05:38:58.091Z,9.55
2023-02-12T05:41:25.447Z,9.23
2023-02-12T05:43:53.199Z,10.45
2023-02-12T05:46:22.093Z,11.02
2023-02-12T05:48:49.460Z,11.65
2023-02-12T05:51:23.117Z,10.90
2023-02-12T05:54:00.403Z,10.23
2023-02-12T05:56:31.340Z,9.60
2023-02-12T05:59:06.210Z,9.43
2023-02-12T06:01:41.171Z,8.98
2023-02-12T06:04:18.409Z,9.40
2023-02-12T06:06:46.436Z,8.13
2023-02-12T06:09:14.398Z,8.32
2023-02-12T06:11:42.649Z,7.95
2023-02-12T06:14:15.722Z,8.52
2023-02-12T06:16:47.016Z,9.30
2023-02-12T06:19:14.356Z,8.57
2023-02-12T06:21:42.064Z,9.25
2023-02-12T06:24:12.661Z,8.38
2023-02-12T06:26:39.993Z,9.15
2023-02-12T06:29:07.306Z,9.90
2023-02-12T06:31:37.130Z,10.38
2023-02-12T06:34:08.246Z,11.40
2023-02-12T06:36:39.876Z,11.63
2023-02-12T06:39:08.134Z,10.70
2023-02-12T06:41:35.773Z,11.00
2023-02-12T06:44:03.800Z,11.52
2023-02-12T06:46:31.468Z,10.75
2023-02-12T06:49:01.054Z,9.98
2023-02-12T06:51:29.643Z,9.98
2023-02-12T06:53:58.126Z,10.45
2023-02-12T06:56:27.018Z,10.15
2023-02-12T06:58:58.558Z,9.50
2023-02-12T07:01:29.563Z,8.93
2023-02-12T07:04:05.079Z,9.45
2023-02-12T07:06:35.825Z,10.32
2023-02-12T07:09:05.307Z,9.90
2023-02-12T07:11:38.164Z,9.38
2023-02-12T07:14:07.474Z,8.25
2023-02-12T07:16:34.780Z,8.20
2023-02-12T07:19:02.097Z,7.95
2023-02-12T07:21:29.245Z,8.13
2023-02-12T07:23:56.392Z,7.22
2023-02-12T07:26:23.850Z,7.97
2023-02-12T07:28:52.309Z,6.97
2023-02-12T07:31:23.637Z,7.88
2023-02-12T07:33:55.954Z,7.85
2023-02-12T07:36:25.713Z,7.60
2023-02-12T07:38:54.298Z,7.43
2023-02-12T07:41:34.948Z,7.05
2023-02-12T07:44:10.300Z,7.18
2023-02-12T07:46:47.998Z,7.32
2023-02-12T07:49:23.476Z,6.80
2023-02-12T07:51:50.876Z,7.82
2023-02-12T07:54:18.299Z,6.63
2023-02-12T07:56:47.164Z,6.50
2023-02-12T07:59:17.857Z,6.05
2023-02-12T08:01:52.853Z,5.53
2023-02-12T08:04:23.352Z,5.13
2023-02-12T08:06:54.601Z,5.68
2023-02-12T08:09:26.626Z,5.60
2023-02-12T08:11:54.594Z,5.70
2023-02-12T08:14:22.953Z,6.60
2023-02-12T08:16:51.356Z,7.32
2023-02-12T08:19:22.704Z,6.85
2023-02-12T08:21:54.257Z,5.78
2023-02-12T08:24:24.266Z,5.95
2023-02-12T08:26:52.075Z,6.00
2023-02-12T08:29:26.226Z,6.38
2023-02-12T08:32:01.308Z,6.18
2023-02-12T08:34:35.166Z,6.32
2023-02-12T08:37:05.743Z,6.65
2023-02-12T08:39:32.924Z,6.43
2023-02-12T08:42:01.805Z,6.32
2023-02-12T08:44:29.517Z,6.35
2023-02-12T08:46:56.928Z,6.85
2023-02-12T08:49:28.582Z,6.70
2023-02-12T08:51:58.578Z,6.38
2023-02-12T08:54:29.440Z,6.78
2023-02-12T08:57:00.262Z,6.55
2023-02-12T08:59:28.262Z,7.70
2023-02-12T09:01:56.954Z,7.47
2023-02-12T09:04:27.993Z,6.47
2023-02-12T09:06:56.180Z,5.43
2023-02-12T09:09:25.617Z,5.18
2023-02-12T09:11:52.811Z,6.20
2023-02-12T09:14:24.686Z,4.85
2023-02-12T09:16:53.685Z,6.00
2023-02-12T09:19:21.009Z,6.38
2023-02-12T09:21:55.582Z,6.75
2023-02-12T09:24:24.868Z,11.10
2023-02-12T09:26:51.944Z,7.85
2023-02-12T09:29:19.225Z,7.93
2023-02-12T09:31:46.759Z,7.05
2023-02-12T09:34:14.008Z,8.00
2023-02-12T09:36:41.428Z,6.53
2023-02-12T09:39:09.271Z,5.50
2023-02-12T09:42:15.311Z,5.30
2023-02-12T09:44:51.210Z,9.55
2023-02-12T09:47:55.232Z,17.67
2023-02-12T09:50:51.668Z,13.38
2023-02-12T09:53:24.450Z,13.55
2023-02-12T09:55:51.563Z,13.30
2023-02-12T09:58:38.504Z,73.22
2023-02-12T10:01:22.119Z,43.17
2023-02-12T10:03:52.693Z,13.25
2023-02-12T10:06:25.563Z,8.27
2023-02-12T10:09:44.623Z,5.60
2023-02-12T10:12:36.662Z,5.32
2023-02-12T10:15:12.952Z,5.20
2023-02-12T10:18:07.682Z,5.95
2023-02-12T10:21:27.407Z,5.57
2023-02-12T10:24:23.950Z,5.50
2023-02-12T10:26:58.262Z,6.57
2023-02-12T10:29:34.188Z,5.75
2023-02-12T10:32:21.685Z,6.43
2023-02-12T10:34:50.958Z,6.18
2023-02-12T10:37:39.878Z,6.28
2023-02-12T10:40:32.793Z,7.57
2023-02-12T10:43:02.184Z,7.82
2023-02-12T10:45:39.886Z,7.97
2023-02-12T10:48:37.201Z,6.80
2023-02-12T10:51:10.268Z,6.75
2023-02-12T10:53:41.067Z,6.70
2023-02-12T10:56:25.738Z,6.88
2023-02-12T10:58:57.085Z,7.60
2023-02-12T11:01:38.838Z,7.70
2023-02-12T11:04:29.963Z,7.43
2023-02-12T11:07:06.423Z,6.90
2023-02-12T11:09:45.669Z,6.82
2023-02-12T11:12:27.789Z,7.75
2023-02-12T11:15:00.460Z,8.48
2023-02-12T11:17:40.406Z,6.80
2023-02-12T11:20:16.656Z,7.93
2023-02-12T11:23:10.636Z,10.05
2023-02-12T11:25:38.414Z,8.73
2023-02-12T11:28:19.593Z,9.23
2023-02-12T11:31:18.946Z,10.07
2023-02-12T11:33:46.055Z,10.15
2023-02-12T11:36:25.402Z,10.13
2023-02-12T11:38:59.005Z,10.60
2023-02-12T11:41:36.439Z,9.63
2023-02-12T11:44:21.677Z,10.70
2023-02-12T11:46:54.474Z,10.80
2023-02-12T11:52:00.262Z,11.57
2023-02-12T11:54:33.556Z,11.32
2023-02-12T11:57:01.098Z,11.50
2023-02-12T11:59:46.082Z,12.68
2023-02-12T12:02:25.906Z,16.73
2023-02-12T12:05:07.991Z,13.77
2023-02-12T12:07:41.462Z,12.32
2023-02-12T12:10:18.656Z,13.18
2023-02-12T12:12:53.932Z,13.23
2023-02-12T12:15:49.222Z,13.73
2023-02-12T12:18:48.472Z,13.88
2023-02-12T12:21:34.019Z,12.50
2023-02-12T12:24:26.369Z,14.65
2023-02-12T12:27:14.426Z,15.18
2023-02-12T12:30:06.848Z,14.95
2023-02-12T12:32:40.660Z,14.55
2023-02-12T12:35:18.052Z,14.73
2023-02-12T12:38:32.357Z,15.93
2023-02-12T12:41:42.961Z,15.90
2023-02-12T12:45:05.445Z,13.65
2023-02-12T12:47:48.238Z,14.18
2023-02-12T12:50:53.084Z,14.35
2023-02-12T12:53:25.985Z,14.80
2023-02-12T12:56:31.532Z,15.77
2023-02-12T12:59:10.169Z,14.43
2023-02-12T13:02:23.156Z,14.73
2023-02-12T13:05:14.699Z,14.83
2023-02-12T13:08:30.596Z,15.52
2023-02-12T13:11:11.923Z,15.95
2023-02-12T13:13:48.251Z,16.23
2023-02-12T13:16:53.542Z,14.65
2023-02-12T13:19:47.630Z,15.20
2023-02-12T13:22:39.555Z,12.93
2023-02-12T13:25:28.951Z,15.95
2023-02-12T13:27:59.400Z,16.23
2023-02-12T13:30:31.894Z,15.18
2023-02-12T13:33:10.475Z,15.50
2023-02-12T13:35:46.743Z,14.02
2023-02-12T13:38:27.212Z,12.13
2023-02-12T13:41:04.805Z,15.25
2023-02-12T13:44:07.307Z,12.13
2023-02-12T13:47:27.782Z,12.65
2023-02-12T13:50:23.602Z,13.00
2023-02-12T13:53:06.567Z,12.38
2023-02-12T13:55:54.656Z,11.80
2023-02-12T13:58:40.494Z,11.85
2023-02-12T14:01:13.085Z,11.77
2023-02-12T14:03:41.312Z,12.13
2023-02-12T14:06:18.181Z,11.15
2023-02-12T14:09:07.365Z,12.45
2023-02-12T14:11:46.600Z,11.45
2023-02-12T14:14:20.132Z,11.98
2023-02-12T14:16:47.351Z,12.50
2023-02-12T14:19:37.562Z,12.07
2023-02-12T14:22:35.215Z,11.18
2023-02-12T14:25:25.211Z,12.15
2023-02-12T14:27:57.958Z,12.35
2023-02-12T14:30:40.607Z,12.85
2023-02-12T14:33:10.045Z,13.23
2023-02-12T14:35:44.203Z,13.55
2023-02-12T14:38:20.053Z,13.02
2023-02-12T14:40:49.267Z,12.55
2023-02-12T14:43:55.948Z,12.77
2023-02-12T14:46:23.085Z,11.85
2023-02-12T14:49:07.787Z,12.10
2023-02-12T14:52:18.040Z,13.02
2023-02-12T14:54:54.998Z,13.00
2023-02-12T14:57:37.840Z,12.38
2023-02-12T15:00:17.182Z,12.65
2023-02-12T15:03:05.847Z,13.00
2023-02-12T15:05:42.510Z,13.35
2023-02-12T15:08:33.922Z,13.20
2023-02-12T15:11:28.326Z,14.05
2023-02-12T15:14:19.817Z,13.70
2023-02-12T15:17:11.467Z,13.45
2023-02-12T15:19:55.114Z,13.93
2023-02-12T15:22:35.945Z,13.45
2023-02-12T15:25:32.770Z,13.02
2023-02-12T15:28:26.030Z,12.40
2023-02-12T15:30:56.572Z,13.35
2023-02-12T15:33:30.950Z,14.43
2023-02-12T15:35:59.779Z,14.23
2023-02-12T15:38:44.232Z,14.18
2023-02-12T15:41:45.069Z,14.07
2023-02-12T15:44:31.966Z,13.65
2023-02-12T15:47:11.212Z,12.95
2023-02-12T15:49:40.519Z,13.27
2023-02-12T15:52:46.017Z,14.10
2023-02-12T15:55:27.444Z,13.93
2023-02-12T15:58:03.596Z,13.75
2023-02-12T16:00:50.143Z,13.82
2023-02-12T16:03:25.466Z,13.65
2023-02-12T16:05:58.233Z,13.60
2023-02-12T16:10:55.899Z,12.55
2023-02-12T16:13:51.442Z,14.38
2023-02-12T16:16:25.756Z,14.35
2023-02-12T16:19:32.972Z,13.45
2023-02-12T16:22:19.831Z,14.20
2023-02-12T16:24:51.403Z,14.98
2023-02-12T16:27:31.950Z,15.82
2023-02-12T16:30:22.492Z,18.38
2023-02-12T16:32:50.136Z,20.58
2023-02-12T16:35:17.141Z,15.57
2023-02-12T16:37:48.599Z,17.15
2023-02-12T16:40:15.675Z,16.25
2023-02-12T16:42:49.139Z,16.05
2023-02-12T16:45:28.903Z,16.63
2023-02-12T16:48:09.061Z,19.00
2023-02-12T16:50:45.957Z,14.95
2023-02-12T16:53:44.392Z,15.32
2023-02-12T16:56:18.325Z,23.83
2023-02-12T16:58:48.569Z,20.38
2023-02-12T17:01:20.564Z,15.50
2023-02-12T17:03:50.660Z,18.20
2023-02-12T17:06:22.426Z,18.65
2023-02-12T17:08:50.065Z,14.85
2023-02-12T17:11:18.681Z,17.05
2023-02-12T17:13:48.870Z,15.57
2023-02-12T17:16:29.763Z,15.57
2023-02-12T17:18:58.448Z,16.98
2023-02-12T17:21:43.101Z,17.27
2023-02-12T17:24:24.841Z,18.55
2023-02-12T17:26:53.338Z,19.88
2023-02-12T17:29:23.582Z,18.92
2023-02-12T17:31:56.404Z,17.15
2023-02-12T17:36:52.340Z,18.45
2023-02-12T17:39:20.824Z,16.63
2023-02-12T17:41:49.194Z,19.63
2023-02-12T17:44:16.552Z,19.10
2023-02-12T17:46:43.907Z,16.52
2023-02-12T17:49:11.887Z,46.72
2023-02-12T17:51:39.040Z,68.90
2023-02-12T17:54:06.385Z,30.90
2023-02-12T17:56:34.168Z,24.65
2023-02-12T17:59:03.580Z,29.63
2023-02-12T18:01:31.343Z,21.02
2023-02-12T18:03:59.609Z,35.35
2023-02-12T18:06:30.963Z,50.35
2023-02-12T18:09:00.216Z,55.22
2023-02-12T18:11:28.034Z,56.67
2023-02-12T18:13:57.512Z,32.58
2023-02-12T18:16:28.040Z,25.15
2023-02-12T18:18:55.912Z,24.13
2023-02-12T18:21:23.473Z,21.00
2023-02-12T18:23:50.885Z,20.60
2023-02-12T18:26:19.133Z,20.75
2023-02-12T18:28:47.896Z,20.25
2023-02-12T18:31:19.177Z,18.83
2023-02-12T18:33:47.948Z,18.23
2023-02-12T18:36:20.280Z,17.00
2023-02-12T18:38:50.703Z,18.13
2023-02-12T18:41:31.075Z,18.73
2023-02-12T18:44:00.424Z,18.48
2023-02-12T18:46:30.943Z,17.20
2023-02-12T18:48:58.984Z,15.70
2023-02-12T18:51:29.646Z,17.58
2023-02-12T18:54:06.501Z,16.50
2023-02-12T18:56:40.253Z,16.45
2023-02-12T18:59:08.705Z,15.88
2023-02-12T19:01:36.892Z,15.60
2023-02-12T19:04:07.610Z,15.73
2023-02-12T19:06:53.068Z,14.00
2023-02-12T19:09:25.057Z,14.80
2023-02-12T19:11:57.842Z,10.30
2023-02-12T19:14:27.420Z,14.07
2023-02-12T19:16:54.899Z,29.60
2023-02-12T19:19:23.776Z,35.35
2023-02-12T19:21:51.012Z,47.22
2023-02-12T19:24:19.007Z,31.15
2023-02-12T19:26:50.250Z,41.70
2023-02-12T19:29:18.936Z,38.47
2023-02-12T19:31:47.503Z,19.45
2023-02-12T19:34:21.748Z,12.20
2023-02-12T19:36:50.229Z,11.18
2023-02-12T19:39:24.326Z,12.25
2023-02-12T19:41:52.536Z,10.73
2023-02-12T19:44:23.270Z,12.07
2023-02-12T19:46:51.323Z,11.35
2023-02-12T19:49:22.705Z,10.55
2023-02-12T19:51:50.540Z,9.50
2023-02-12T19:54:20.156Z,9.88
2023-02-12T19:56:48.604Z,8.88
2023-02-12T19:59:19.788Z,9.00
2023-02-12T20:01:48.954Z,9.35
2023-02-12T20:04:20.816Z,9.73
2023-02-12T20:06:52.329Z,9.27
2023-02-12T20:09:22.846Z,10.00
2023-02-12T20:11:50.838Z,9.20
2023-02-12T20:14:18.270Z,8.98
2023-02-12T20:16:47.087Z,13.18
2023-02-12T20:19:20.362Z,9.57
2023-02-12T20:21:53.359Z,9.40
2023-02-12T20:26:51.109Z,11.13
2023-02-12T20:29:19.279Z,9.15
2023-02-12T20:31:47.585Z,8.63
2023-02-12T20:34:23.218Z,8.98
2023-02-12T20:36:58.355Z,8.00
2023-02-12T20:39:26.018Z,7.95
2023-02-12T20:41:53.171Z,9.00
2023-02-12T20:44:22.169Z,8.95
2023-02-12T20:46:55.625Z,8.32
2023-02-12T20:49:26.308Z,8.18
2023-02-12T20:51:53.831Z,8.25
2023-02-12T20:54:21.457Z,8.38
2023-02-12T20:56:50.754Z,8.30
2023-02-12T20:59:18.571Z,8.43
2023-02-12T21:01:45.750Z,8.20
2023-02-12T21:04:17.959Z,8.18
2023-02-12T21:06:45.885Z,8.23
2023-02-12T21:09:15.137Z,7.93
2023-02-12T21:11:46.010Z,7.60
2023-02-12T21:14:23.949Z,7.68
2023-02-12T21:16:55.813Z,7.97
2023-02-12T21:19:24.601Z,7.57
2023-02-12T21:21:51.724Z,7.57
2023-02-12T21:24:24.006Z,7.53
2023-02-12T21:26:53.709Z,36.50
2023-02-12T21:29:22.142Z,17.77
2023-02-12T21:31:51.572Z,8.27
2023-02-12T21:34:22.535Z,11.80
2023-02-12T21:36:52.502Z,11.98
2023-02-12T21:39:25.226Z,9.90
2023-02-12T21:44:24.780Z,7.20
2023-02-12T21:46:52.953Z,7.07
2023-02-12T21:49:28.056Z,6.45
2023-02-12T21:52:03.597Z,6.47
2023-02-12T21:54:31.869Z,6.72
2023-02-12T21:57:00.273Z,6.55
2023-02-12T21:59:29.600Z,7.00
2023-02-12T22:01:59.140Z,7.10
2023-02-12T22:04:27.676Z,6.80
2023-02-12T22:06:56.428Z,6.53
2023-02-12T22:09:23.891Z,6.53
2023-02-12T22:11:52.627Z,6.32
2023-02-12T22:14:21.991Z,6.82
2023-02-12T22:16:49.601Z,6.60
2023-02-12T22:19:16.804Z,6.30
2023-02-12T22:21:44.718Z,6.43
2023-02-12T22:24:16.120Z,6.65
2023-02-12T22:26:44.774Z,6.00
2023-02-12T22:29:14.942Z,6.20
2023-02-12T22:31:44.754Z,6.47
2023-02-12T22:34:17.639Z,6.68
2023-02-12T22:36:46.107Z,6.28
2023-02-12T22:39:14.742Z,6.40
2023-02-12T22:41:42.658Z,6.32
2023-02-12T22:44:12.930Z,6.57
2023-02-12T22:46:44.124Z,6.18
2023-02-12T22:49:11.507Z,6.57
2023-02-12T22:51:39.806Z,6.57
2023-02-12T22:54:12.211Z,6.35
2023-02-12T22:56:39.409Z,6.40
2023-02-12T22:59:06.850Z,6.63
2023-02-12T23:01:34.002Z,6.47
2023-02-12T23:04:01.182Z,6.57
2023-02-12T23:06:31.631Z,6.72
2023-02-12T23:09:05.120Z,6.38
2023-02-12T23:11:34.274Z,7.40
2023-02-12T23:14:01.757Z,6.45
2023-02-12T23:16:29.229Z,6.10
2023-02-12T23:18:59.339Z,7.03
2023-02-12T23:21:29.248Z,6.45
2023-02-12T23:23:59.190Z,6.00
2023-02-12T23:26:27.950Z,5.97
2023-02-12T23:28:56.374Z,5.97
2023-02-12T23:31:24.520Z,5.60
2023-02-12T23:33:52.326Z,5.60
2023-02-12T23:36:19.552Z,5.35
2023-02-12T23:38:47.005Z,5.32
2023-02-12T23:41:14.347Z,5.40
2023-02-12T23:43:41.512Z,5.60
2023-02-12T23:46:09.420Z,5.60
2023-02-12T23:48:36.627Z,5.57
2023-02-12T23:51:04.012Z,5.65
2023-02-12T23:53:31.125Z,5.43
2023-02-12T23:55:59.033Z,4.93
2023-02-12T23:58:26.193Z,5.35
